University Park Airport
KUNV : now visible

Airfield :











YOU CAN JOIN US ON...

 
LOGIN :

Register | Disclaimer

   EN    FR    IT 

 









Legend :    VFR   Marginal VFR   IFR   Intensive IFR   Very Intensive IFR
Visi :
Ceiling :
>= 8 km
>= 3000ft
5 to 8 km
1000 to 3000 ft
1500m to 5 km
500 to 1000 ft
800 to 1500m
200 to 500 ft
< 800m
< 200 ft
Symbols :   Thunderstorms  Fog  Heavy snow  Heavy precipitations  Wind > 20 kt






- Airport Elevation : 1239 ft


KUNV - University Park

CURRENT METAR :
  • 180735Z AUTO 16007G19KT 130V190 10SM SCT075 OVC090 05/M05 A3013 RMK AO2 T00531050

EXPIRED METARs :
  • 180716Z AUTO 15008KT 110V180 10SM SCT075 OVC100 05/M05 A3014 RMK AO2 T00531055
  • 180656Z AUTO 15008G17KT 120V180 10SM OVC100 06/M06 A3016 RMK AO2 T00551056
  • 180635Z AUTO 15007KT 10SM OVC110 05/M06 A3015 RMK AO2 T00531056
  • 180615Z AUTO 14007KT 10SM OVC110 05/M05 A3017 RMK AO2 T00511054
  • 180556Z AUTO 15007KT 10SM OVC110 05/M05 A3017 RMK AO2 T00511054 10052 20030
  • 180536Z AUTO 14003KT 10SM SCT095 OVC110 05/M05 A3018 RMK AO2 T00501051
  • 180515Z AUTO 13006KT 10SM OVC095 05/M05 A3019 RMK AO2 T00511051
  • 180455Z AUTO 13003KT 10SM OVC085 05/M05 A3020 RMK AO2 T00501051

TAF KUNV
Valid from the 18 at 07:00 until the 19 at 06:00 UTC


180715Z 1807/1906 15008G15KT P6SM BKN080 OVC090
FM180900 15008G15KT 4SM -RASN BKN025 OVC035 WS017/16038KT
FM181500 20008G15KT 3SM -RA BR OVC025 WS017/18042KT
FM181900 19005KT 2SM -RA BR OVC015 WS020/23031KT
FM190300 29008G15KT P6SM BKN040



MET'MAP, your aeronautical weather chart ! - Copyright ORBIFLY December 2007 - Disclaimer

ORBIFLY MET'MAP TEAM :

Programming & Development : Alexandra Zaïnal
Concept & original design : Baudouin d'Aumeries
Assistance for programming : Marc-Olivier Méhu
Technical & hardware support : Manuel Goepfert

Contact : metmap@orbifly.com




SOURCES & CREDITS :

   NOAA       Earth
Advisory